createdAt,value
2018-02-05T00:02:54.675Z,69.13
2018-02-05T00:08:23.644Z,107.73
2018-02-05T00:13:51.829Z,83.03
2018-02-05T00:19:19.969Z,38.70
2018-02-05T00:24:48.122Z,39.50
2018-02-05T00:30:16.329Z,47.53
2018-02-05T00:35:44.519Z,59.50
2018-02-05T00:41:12.706Z,80.03
2018-02-05T00:46:40.865Z,41.07
2018-02-05T00:52:09.032Z,60.93
2018-02-05T00:57:37.240Z,51.57
2018-02-05T01:03:05.456Z,38.53
2018-02-05T01:08:34.682Z,40.87
2018-02-05T01:14:02.902Z,38.43
2018-02-05T01:19:33.080Z,39.27
2018-02-05T01:25:01.272Z,39.23
2018-02-05T01:30:30.430Z,42.33
2018-02-05T01:35:58.609Z,37.80
2018-02-05T01:41:26.764Z,45.00
2018-02-05T01:46:54.933Z,35.03
2018-02-05T01:52:23.090Z,36.20
2018-02-05T01:57:52.025Z,34.87
2018-02-05T02:03:20.938Z,37.30
2018-02-05T02:08:49.102Z,42.43
2018-02-05T02:14:17.258Z,34.83
2018-02-05T02:19:45.414Z,35.97
2018-02-05T02:25:13.575Z,33.07
2018-02-05T02:30:41.752Z,38.87
2018-02-05T02:36:09.985Z,29.87
2018-02-05T02:41:38.916Z,34.67
2018-02-05T02:47:07.100Z,34.43
2018-02-05T02:52:35.511Z,37.87
2018-02-05T02:58:03.687Z,33.57
2018-02-05T03:03:32.855Z,29.57
2018-02-05T03:09:01.030Z,34.20
2018-02-05T03:14:29.210Z,28.87
2018-02-05T03:19:57.360Z,32.60
2018-02-05T03:25:25.520Z,21.77
2018-02-05T03:30:54.464Z,24.70
2018-02-05T03:36:22.627Z,29.90
2018-02-05T03:41:50.793Z,27.27
2018-02-05T03:47:21.906Z,29.33
2018-02-05T03:52:50.313Z,37.20
2018-02-05T03:58:19.340Z,30.90
2018-02-05T04:03:47.498Z,26.50
2018-02-05T04:09:15.753Z,28.90
2018-02-05T04:14:43.918Z,27.07
2018-02-05T04:20:12.861Z,28.40
2018-02-05T04:25:41.041Z,28.37
2018-02-05T04:31:09.260Z,25.80
2018-02-05T04:36:37.485Z,26.73
2018-02-05T04:42:05.651Z,24.40
2018-02-05T04:47:33.813Z,24.47
2018-02-05T04:53:01.974Z,23.00
2018-02-05T04:58:31.030Z,21.63
2018-02-05T05:03:59.515Z,23.13
2018-02-05T05:09:27.821Z,21.40
2018-02-05T05:14:55.970Z,27.70
2018-02-05T05:20:24.893Z,26.47
2018-02-05T05:25:53.996Z,27.17
2018-02-05T05:31:22.182Z,19.20
2018-02-05T05:36:51.123Z,20.63
2018-02-05T05:42:20.036Z,24.90
2018-02-05T05:47:48.193Z,21.83
2018-02-05T05:53:16.341Z,28.27
2018-02-05T05:58:44.804Z,21.30
2018-02-05T06:04:12.955Z,24.73
2018-02-05T06:09:41.097Z,22.73
2018-02-05T06:15:09.250Z,24.00
2018-02-05T06:20:37.394Z,23.30
2018-02-05T06:26:06.477Z,25.73
2018-02-05T06:31:34.662Z,25.50
2018-02-05T06:37:02.851Z,31.50
2018-02-05T06:42:31.968Z,31.40
2018-02-05T06:48:00.138Z,29.17
2018-02-05T06:53:46.247Z,26.53
2018-02-05T06:59:14.407Z,29.30
2018-02-05T07:04:43.315Z,30.97
2018-02-05T07:10:11.500Z,25.10
2018-02-05T07:15:39.690Z,23.43
2018-02-05T07:21:08.628Z,23.73
2018-02-05T07:26:37.550Z,25.87
2018-02-05T07:32:05.725Z,24.70
2018-02-05T07:37:33.947Z,25.53
2018-02-05T07:43:02.113Z,23.70
2018-02-05T07:48:31.131Z,20.20
2018-02-05T07:54:00.175Z,17.93
2018-02-05T07:59:28.336Z,21.73
2018-02-05T08:04:56.510Z,20.57
2018-02-05T08:10:24.718Z,19.13
2018-02-05T08:15:54.011Z,20.30
2018-02-05T08:21:22.222Z,21.20
2018-02-05T08:26:51.157Z,19.83
2018-02-05T08:32:20.069Z,23.77
2018-02-05T08:37:48.220Z,18.77
2018-02-05T08:43:17.146Z,20.30
2018-02-05T08:48:45.358Z,21.03
2018-02-05T08:54:13.521Z,20.30
2018-02-05T08:59:41.711Z,18.47
2018-02-05T09:05:09.868Z,19.50
2018-02-05T09:10:38.064Z,22.67
2018-02-05T09:16:07.033Z,21.60
2018-02-05T09:21:35.247Z,23.57
2018-02-05T09:27:03.425Z,22.60
2018-02-05T09:32:31.585Z,21.00
2018-02-05T09:37:59.791Z,22.43
2018-02-05T09:43:28.784Z,20.70
2018-02-05T09:48:56.938Z,17.47
2018-02-05T09:54:25.891Z,20.00
2018-02-05T09:59:54.042Z,18.60
2018-02-05T10:05:22.216Z,19.63
2018-02-05T10:10:51.148Z,28.73
2018-02-05T10:16:20.107Z,22.37
2018-02-05T10:21:48.307Z,21.80
2018-02-05T10:27:17.236Z,18.13
2018-02-05T10:32:45.381Z,26.27
2018-02-05T10:38:14.303Z,23.23
2018-02-05T10:43:42.455Z,23.80
2018-02-05T10:49:10.588Z,25.97
2018-02-05T10:54:38.991Z,23.10
2018-02-05T11:00:07.200Z,30.40
2018-02-05T11:05:36.124Z,23.90
2018-02-05T11:11:05.165Z,21.00
2018-02-05T11:16:33.322Z,21.50
2018-02-05T11:22:01.480Z,18.93
2018-02-05T11:27:29.626Z,16.87
2018-02-05T11:32:58.535Z,18.17
2018-02-05T11:38:26.684Z,18.27
2018-02-05T11:43:55.591Z,20.20
2018-02-05T11:49:23.729Z,19.30
2018-02-05T11:54:51.875Z,18.47
2018-02-05T12:00:20.056Z,17.80
2018-02-05T12:05:48.211Z,16.07
2018-02-05T12:11:17.122Z,19.13
2018-02-05T12:16:45.281Z,18.70
2018-02-05T12:22:13.431Z,16.03
2018-02-05T12:27:41.591Z,21.40
2018-02-05T12:33:10.512Z,23.57
2018-02-05T12:38:38.677Z,19.47
2018-02-05T12:44:06.831Z,17.37
2018-02-05T12:49:34.967Z,21.13
2018-02-05T12:55:03.148Z,22.60
2018-02-05T13:00:34.620Z,23.30
2018-02-05T13:12:12.740Z,19.77
2018-02-05T13:17:41.671Z,23.57
2018-02-05T13:23:10.648Z,22.90
2018-02-05T13:28:38.780Z,24.43
2018-02-05T13:34:06.993Z,19.30
2018-02-05T13:39:35.188Z,21.07
2018-02-05T13:45:03.815Z,20.60
2018-02-05T13:50:31.981Z,23.77
2018-02-05T13:56:00.146Z,21.77
2018-02-05T14:01:29.080Z,25.13
2018-02-05T14:06:58.013Z,22.97
2018-02-05T14:12:26.255Z,23.83
2018-02-05T14:17:54.424Z,23.47
2018-02-05T14:23:22.574Z,23.57
2018-02-05T14:28:51.480Z,23.90
2018-02-05T14:34:19.628Z,23.73
2018-02-05T14:39:47.757Z,25.10
2018-02-05T14:45:16.672Z,28.37
2018-02-05T14:50:44.975Z,22.77
2018-02-05T14:56:13.131Z,30.80
2018-02-05T15:01:42.104Z,30.33
2018-02-05T15:07:10.238Z,26.20
2018-02-05T15:12:38.403Z,24.40
2018-02-05T15:18:06.596Z,26.97
2018-02-05T15:23:34.764Z,25.97
2018-02-05T15:29:03.358Z,24.57
2018-02-05T15:34:31.571Z,27.27
2018-02-05T15:39:59.717Z,22.80
2018-02-05T15:45:28.654Z,26.40
2018-02-05T15:50:57.573Z,21.93
2018-02-05T15:56:25.716Z,23.17
2018-02-05T16:01:54.619Z,20.20
2018-02-05T16:07:22.772Z,22.30
2018-02-05T16:12:51.687Z,27.10
2018-02-05T16:18:19.852Z,25.97
2018-02-05T16:23:47.991Z,23.53
2018-02-05T16:29:24.823Z,22.47
2018-02-05T16:34:54.210Z,23.63
2018-02-05T16:40:22.405Z,24.40
2018-02-05T16:45:54.935Z,22.33
2018-02-05T16:51:27.487Z,19.40
2018-02-05T16:56:56.455Z,24.47
2018-02-05T17:02:24.897Z,27.63
2018-02-05T17:07:53.076Z,27.67
2018-02-05T17:13:21.991Z,21.30
2018-02-05T17:18:50.165Z,25.50
2018-02-05T17:24:18.333Z,24.20
2018-02-05T17:29:46.500Z,30.30
2018-02-05T17:35:14.653Z,28.10
2018-02-05T17:40:42.801Z,20.27
2018-02-05T17:46:11.543Z,34.00
2018-02-05T17:51:40.742Z,23.10
2018-02-05T17:57:09.026Z,20.27
2018-02-05T18:02:37.280Z,23.87
2018-02-05T18:08:05.922Z,22.47
2018-02-05T18:13:34.988Z,24.27
2018-02-05T18:19:03.918Z,25.20
2018-02-05T18:24:32.092Z,23.20
2018-02-05T18:30:00.286Z,26.43
2018-02-05T18:35:29.236Z,21.63
2018-02-05T18:40:58.183Z,28.03
2018-02-05T18:46:26.381Z,24.47
2018-02-05T18:51:55.365Z,28.17
2018-02-05T18:57:23.565Z,22.70
2018-02-05T19:02:51.753Z,26.33
2018-02-05T19:08:20.870Z,26.07
2018-02-05T19:13:49.054Z,26.20
2018-02-05T19:19:17.270Z,21.80
2018-02-05T19:24:46.435Z,30.40
2018-02-05T19:30:14.589Z,27.33
2018-02-05T19:35:42.751Z,24.93
2018-02-05T19:41:10.918Z,24.23
2018-02-05T19:46:39.212Z,24.57
2018-02-05T19:52:07.388Z,22.70
2018-02-05T19:57:36.340Z,24.70
2018-02-05T20:03:04.678Z,22.70
2018-02-05T20:08:33.793Z,26.70
2018-02-05T20:14:02.920Z,24.53
2018-02-05T20:19:31.176Z,27.07
2018-02-05T20:25:00.306Z,26.17
2018-02-05T20:30:30.277Z,26.90
2018-02-05T20:35:59.248Z,27.87
2018-02-05T20:41:27.410Z,28.80
2018-02-05T20:46:57.049Z,28.10
2018-02-05T20:52:25.330Z,26.20
2018-02-05T20:57:53.483Z,22.93
2018-02-05T21:03:21.712Z,20.83
2018-02-05T21:08:50.805Z,30.67
2018-02-05T21:14:18.996Z,27.53
2018-02-05T21:19:47.162Z,21.20
2018-02-05T21:25:15.421Z,21.90
2018-02-05T21:30:44.492Z,23.10
2018-02-05T21:36:18.600Z,27.53
2018-02-05T21:41:46.779Z,25.10
2018-02-05T21:47:15.724Z,20.47
2018-02-05T21:52:48.350Z,18.07
2018-02-05T21:58:17.508Z,23.50
2018-02-05T22:03:45.699Z,25.93
2018-02-05T22:09:15.794Z,17.10
2018-02-05T22:14:44.045Z,28.20
2018-02-05T22:20:12.278Z,22.47
2018-02-05T22:25:40.428Z,22.57
2018-02-05T22:31:09.358Z,21.13
2018-02-05T22:36:39.256Z,22.33
2018-02-05T22:42:07.435Z,23.37
2018-02-05T22:47:35.605Z,24.63
2018-02-05T22:53:03.793Z,23.03
2018-02-05T22:58:33.767Z,22.13
2018-02-05T23:04:01.983Z,24.03
2018-02-05T23:09:30.638Z,22.13
2018-02-05T23:14:59.987Z,25.17
2018-02-05T23:20:28.143Z,22.97
2018-02-05T23:25:56.300Z,28.13
2018-02-05T23:31:24.449Z,26.07
2018-02-05T23:36:52.589Z,28.67
2018-02-05T23:42:20.756Z,25.37
2018-02-05T23:47:48.908Z,28.47
2018-02-05T23:53:17.070Z,23.70
2018-02-05T23:58:45.227Z,31.90
